KGEY

South Big Horn County Airport

Greybull, Wyoming, USA
METAR KGEY 181453Z AUTO 21004KT 10SM CLR M11/M13 A3007 RMK AO2 SLP250 T11111133 56006
Observed Flight Rules
Jan-18 @ 14:53 UTC (24 minutes ago) Visual Flight Rules
Wind Visibility Clouds
210° at 4 knots 10 miles
  • Clear skies
Temperatures Readings
Current -11°C / 12°F
Dewpoint -13°C / 9°F
Humidity 85%
Altimeter 30.07" Hg
Pressure 1025 hPa
Elevation 1191
METAR KGEY 181453Z AUTO 21004KT 10SM CLR M11/M13 A3007 RMK AO2 SLP250 T11111133 56006
Observed Flight Rules
Jan-18 @ 14:53 UTC
(24 minutes ago)
VFR
Wind Visibility
210° at 4 knots 10 miles
Clouds
  • Clear skies
Temperature Dewpoint
-11°C / 12°F -13°C / 9°F
Humidity Altimeter Pressure
85% 30.07" Hg 1025 hPa